地図

経路データ

SID SEASON NUMBER BASIN SUBBASIN NAME ISO_TIME NATURE LAT LON WMO_WIND WMO_PRES WMO_AGENCY TRACK_TYPE DIST2LAND LANDFALL IFLAG USA_AGENCY USA_ATCF_ID USA_LAT USA_LON USA_RECORD USA_STATUS USA_WIND USA_PRES USA_SSHS USA_R34_NE USA_R34_SE USA_R34_SW USA_R34_NW USA_R50_NE USA_R50_SE USA_R50_SW USA_R50_NW USA_R64_NE USA_R64_SE USA_R64_SW USA_R64_NW USA_POCI USA_ROCI USA_RMW USA_EYE TOKYO_LAT TOKYO_LON TOKYO_GRADE TOKYO_WIND TOKYO_PRES TOKYO_R50_DIR TOKYO_R50_LONG TOKYO_R50_SHORT TOKYO_R30_DIR TOKYO_R30_LONG TOKYO_R30_SHORT TOKYO_LAND CMA_LAT CMA_LON CMA_CAT CMA_WIND CMA_PRES HKO_LAT HKO_LON HKO_CAT HKO_WIND HKO_PRES NEWDELHI_LAT NEWDELHI_LON NEWDELHI_GRADE NEWDELHI_WIND NEWDELHI_PRES NEWDELHI_CI NEWDELHI_DP NEWDELHI_POCI REUNION_LAT REUNION_LON REUNION_TYPE REUNION_WIND REUNION_PRES REUNION_TNUM REUNION_CI REUNION_RMW REUNION_R34_NE REUNION_R34_SE REUNION_R34_SW REUNION_R34_NW REUNION_R50_NE REUNION_R50_SE REUNION_R50_SW REUNION_R50_NW REUNION_R64_NE REUNION_R64_SE REUNION_R64_SW REUNION_R64_NW BOM_LAT BOM_LON BOM_TYPE BOM_WIND BOM_PRES BOM_TNUM BOM_CI BOM_RMW BOM_R34_NE BOM_R34_SE BOM_R34_SW BOM_R34_NW BOM_R50_NE BOM_R50_SE BOM_R50_SW BOM_R50_NW BOM_R64_NE BOM_R64_SE BOM_R64_SW BOM_R64_NW BOM_ROCI BOM_POCI BOM_EYE BOM_POS_METHOD BOM_PRES_METHOD NADI_LAT NADI_LON NADI_CAT NADI_WIND NADI_PRES WELLINGTON_LAT WELLINGTON_LON WELLINGTON_WIND WELLINGTON_PRES DS824_LAT DS824_LON DS824_STAGE DS824_WIND DS824_PRES TD9636_LAT TD9636_LON TD9636_STAGE TD9636_WIND TD9636_PRES TD9635_LAT TD9635_LON TD9635_WIND TD9635_PRES TD9635_ROCI NEUMANN_LAT NEUMANN_LON NEUMANN_CLASS NEUMANN_WIND NEUMANN_PRES MLC_LAT MLC_LON MLC_CLASS MLC_WIND MLC_PRES USA_GUST BOM_GUST BOM_GUST_PER REUNION_GUST REUNION_GUST_PER USA_SEAHGT USA_SEARAD_NE USA_SEARAD_SE USA_SEARAD_SW USA_SEARAD_NW STORM_SPEED STORM_DIR
1990140N09122 1990 31 WP MM NOT_NAMED 1990-05-19 18:00:00 TS 9.00000 122.000 main 86 86 __O___________ -1 9.00000 122.000 0 19 1005 2 0
1990140N09122 1990 31 WP MM NOT_NAMED 1990-05-19 21:00:00 TS 8.90000 122.000 main 94 86 __P___________ -1 8.90000 122.000 0 21 1003 0 0
1990140N09122 1990 31 WP MM NOT_NAMED 1990-05-20 00:00:00 TS 9.00000 122.000 main 86 59 __O___________ -1 9.00000 122.000 1 23 1002 5 2
1990140N09122 1990 31 WP MM NOT_NAMED 1990-05-20 03:00:00 TS 9.40000 122.000 main 59 43 __P___________ -1 9.40000 122.000 1 26 1001 8 1
1990140N09122 1990 31 WP MM NOT_NAMED 1990-05-20 06:00:00 TS 9.80000 122.000 main 43 43 __O___________ -1 9.80000 122.000 1 29 1000 4 355
1990140N09122 1990 31 WP MM NOT_NAMED 1990-05-20 09:00:00 TS 9.80747 121.963 main 43 43 __P___________ -1 9.80747 121.963 1 29 1000 0 0
1990140N09122 1990 31 WP MM NOT_NAMED 1990-05-20 12:00:00 TS 9.80000 122.000 main 43 31 __O___________ -1 9.80000 122.000 1 29 1000 4 40
1990140N09122 1990 31 WP MM NOT_NAMED 1990-05-20 15:00:00 TS 10.1501 122.250 main 31 22 __P___________ -1 10.1501 122.250 1 29 1000 9 35
1990140N09122 1990 31 WP MM NOT_NAMED 1990-05-20 18:00:00 TS 10.5000 122.500 main 22 22 __O___________ -1 10.5000 122.500 1 29 1000 5 38
1990140N09122 1990 31 WP MM NOT_NAMED 1990-05-20 21:00:00 TS 10.5150 122.538 main 22 22 __P___________ -1 10.5150 122.538 1 29 1000 0 0
1990140N09122 1990 31 WP MM NOT_NAMED 1990-05-21 00:00:00 TS 10.5000 122.500 main 22 11 __O___________ -1 10.5000 122.500 1 29 1000 1 21
1990140N09122 1990 31 WP MM NOT_NAMED 1990-05-21 03:00:00 TS 10.6374 122.575 main 11 0 __P___________ -1 10.6374 122.575 1 29 1000 5 2
1990140N09122 1990 31 WP MM NOT_NAMED 1990-05-21 06:00:00 TS 11.0000 122.500 main 0 0 __O___________ -1 11.0000 122.500 1 29 1000 12 336
1990140N09122 1990 31 WP MM NOT_NAMED 1990-05-21 09:00:00 TS 11.7502 122.076 main 0 0 __P___________ -1 11.7502 122.076 1 29 1000 18 327
1990140N09122 1990 31 WP MM NOT_NAMED 1990-05-21 12:00:00 TS 12.5000 121.500 main 10 0 __O___________ -1 12.5000 121.500 1 29 1000 15 315
1990140N09122 1990 31 WP MM NOT_NAMED 1990-05-21 15:00:00 TS 12.7874 120.999 main 0 0 __P___________ -1 12.7874 120.999 1 29 1000 11 297
1990140N09122 1990 31 WP MM NOT_NAMED 1990-05-21 18:00:00 TS 13.0000 120.500 main 22 15 __O___________ -1 13.0000 120.500 1 29 1000 12 307
1990140N09122 1990 31 WP MM NOT_NAMED 1990-05-21 21:00:00 TS 13.4996 120.038 main 34 34 __P___________ -1 13.4996 120.038 1 29 1000 14 316
1990140N09122 1990 31 WP MM NOT_NAMED 1990-05-22 00:00:00 TS 14.0000 119.500 main 108 108 __O___________ -1 14.0000 119.500 1 29 1000 15 303
1990140N09122 1990 31 WP MM NOT_NAMED 1990-05-22 03:00:00 TS 14.3254 118.750 main 150 150 __P___________ -1 14.3254 118.750 1 29 1000 15 289
1990140N09122 1990 31 WP MM NOT_NAMED 1990-05-22 06:00:00 TS 14.5000 118.000 main 227 227 __O___________ -1 14.5000 118.000 1 29 1000 13 280
1990140N09122 1990 31 WP MM NOT_NAMED 1990-05-22 09:00:00 TS 14.5371 117.462 main 276 276 __P___________ -1 14.5371 117.462 1 26 1001 10 270
1990140N09122 1990 31 WP MM NOT_NAMED 1990-05-22 12:00:00 TS 14.5000 117.000 main 327 327 __O___________ -1 14.5000 117.000 1 23 1002 9 268
1990140N09122 1990 31 WP MM NOT_NAMED 1990-05-22 15:00:00 TS 14.4999 116.500 main 379 379 __P___________ -1 14.4999 116.500 1 23 1002 10 270
1990140N09122 1990 31 WP MM NOT_NAMED 1990-05-22 18:00:00 TS 14.5000 116.000 main 431 431 __O___________ -1 14.5000 116.000 1 23 1002 10 272
1990140N09122 1990 31 WP MM NOT_NAMED 1990-05-22 21:00:00 TS 14.5376 115.463 main 480 480 __P___________ -1 14.5376 115.463 1 23 1002 10 270
1990140N09122 1990 31 WP MM NOT_NAMED 1990-05-23 00:00:00 TS 14.5000 115.000 main 531 531 __O___________ -1 14.5000 115.000 1 23 1002 7 246
1990140N09122 1990 31 WP MM NOT_NAMED 1990-05-23 03:00:00 TS 14.2494 114.787 main 563 554 __P___________ -1 14.2494 114.787 1 23 1002 7 224
1990140N09122 1990 31 WP MM NOT_NAMED 1990-05-23 06:00:00 TS 14.0000 114.500 main 554 489 __O___________ -1 14.0000 114.500 1 23 1002 10 251
1990140N09122 1990 31 WP MM NOT_NAMED 1990-05-23 09:00:00 TS 13.9385 113.863 main 489 398 __P___________ -1 13.9385 113.863 1 23 1002 15 270
1990140N09122 1990 31 WP MM NOT_NAMED 1990-05-23 12:00:00 TS 14.0000 113.000 main 398 __O___________ -1 14.0000 113.000 1 23 1002 17 274

デジタル台風データ・検索

IBTrACS Databaseについて

本データベースは、米国NOAAが公開する1842年以降の世界の熱帯低気圧のベストトラックデータアーカイブInternational Best Track Archive for Climate Stewardship (IBTrACS)を、ウェブで閲覧しやすい形式に変換したものです。

最終更新日:2021-11-26